Time;durP1;ratioP1;P1;durP2;ratioP2;P2;SDS_P1;SDS_P2;PMS_P1;PMS_P2;Temp;Humidity;BMP_temperature;BMP_pressure;BME280_temperature;BME280_humidity;BME280_pressure;Samples;Min_cycle;Max_cycle;Signal;HPM_P1;HPM_P2
2021/09/11 00:01:07;;;;;;;49.73;39.73;;;;;;;;;;5071924;28;20297;-72
2021/09/11 00:03:34;;;;;;;52.30;41.60;;;;;;;;;;5075499;28;20294;-72
2021/09/11 00:06:01;;;;;;;54.27;40.07;;;;;;;;;;5073778;28;20275;-72
2021/09/11 00:08:27;;;;;;;50.17;40.50;;;;;;;;;;5075028;28;20218;-72
2021/09/11 00:10:53;;;;;;;50.13;40.33;;;;;;;;;;5072954;28;20214;-72
2021/09/11 00:13:20;;;;;;;44.43;35.90;;;;;;;;;;5073626;28;20213;-72
2021/09/11 00:15:48;;;;;;;41.07;34.73;;;;;;;;;;5076037;28;20395;-72
2021/09/11 00:18:15;;;;;;;42.10;34.10;;;;;;;;;;5074993;28;20241;-72
2021/09/11 00:20:43;;;;;;;38.83;32.17;;;;;;;;;;5075304;28;20674;-72
2021/09/11 00:23:11;;;;;;;39.80;34.23;;;;;;;;;;5073655;28;20568;-72
2021/09/11 00:25:38;;;;;;;39.83;35.50;;;;;;;;;;5075661;28;20217;-72
2021/09/11 00:28:05;;;;;;;39.97;34.23;;;;;;;;;;5073209;28;20221;-72
2021/09/11 00:30:31;;;;;;;42.13;36.23;;;;;;;;;;5075023;28;20620;-72
2021/09/11 00:32:58;;;;;;;37.57;32.83;;;;;;;;;;5073829;28;20294;-71
2021/09/11 00:35:24;;;;;;;36.00;30.80;;;;;;;;;;5074197;28;20285;-71
2021/09/11 00:37:52;;;;;;;37.07;30.50;;;;;;;;;;5075819;28;20660;-71
2021/09/11 00:40:19;;;;;;;30.90;27.50;;;;;;;;;;5074779;28;20665;-71
2021/09/11 00:42:48;;;;;;;31.87;25.27;;;;;;;;;;5077695;28;20240;-71
2021/09/11 00:45:15;;;;;;;27.57;24.67;;;;;;;;;;5078559;28;20302;-71
2021/09/11 00:47:41;;;;;;;29.70;25.10;;;;;;;;;;5075967;28;20235;-71
2021/09/11 00:50:09;;;;;;;27.93;24.93;;;;;;;;;;5079143;28;20215;-71
2021/09/11 00:52:37;;;;;;;27.27;23.40;;;;;;;;;;5077991;28;20214;-71
2021/09/11 00:55:06;;;;;;;24.70;21.30;;;;;;;;;;5077686;28;20213;-71
2021/09/11 00:57:33;;;;;;;22.97;19.57;;;;;;;;;;5078344;28;20289;-71
2021/09/11 00:59:59;;;;;;;20.70;18.10;;;;;;;;;;5078596;28;20302;-71
2021/09/11 01:02:26;;;;;;;21.33;16.87;;;;;;;;;;5076394;28;20782;-71
2021/09/11 01:04:52;;;;;;;17.60;15.20;;;;;;;;;;5076637;28;20213;-71
2021/09/11 01:07:18;;;;;;;17.50;14.87;;;;;;;;;;5078674;28;20213;-71
2021/09/11 01:09:45;;;;;;;18.70;15.00;;;;;;;;;;5077656;28;20282;-71
2021/09/11 01:12:13;;;;;;;17.23;14.63;;;;;;;;;;5076362;28;20220;-71
2021/09/11 01:14:39;;;;;;;17.07;14.87;;;;;;;;;;5076576;28;20213;-71
2021/09/11 01:17:06;;;;;;;16.13;13.27;;;;;;;;;;5077259;28;20624;-71
2021/09/11 01:19:32;;;;;;;16.97;12.60;;;;;;;;;;5078454;28;20686;-71
2021/09/11 01:21:59;;;;;;;15.63;12.23;;;;;;;;;;5078813;28;20215;-71
2021/09/11 01:24:26;;;;;;;15.87;11.70;;;;;;;;;;5078531;28;20818;-71
2021/09/11 01:26:53;;;;;;;14.70;11.37;;;;;;;;;;5075157;28;20220;-71
2021/09/11 01:29:19;;;;;;;14.53;11.17;;;;;;;;;;5076516;28;20221;-71
2021/09/11 01:31:45;;;;;;;14.20;11.03;;;;;;;;;;5078546;28;20236;-71
2021/09/11 01:34:12;;;;;;;11.83;9.80;;;;;;;;;;5077937;28;20270;-71
2021/09/11 01:36:38;;;;;;;14.97;9.87;;;;;;;;;;5076828;28;20288;-71
2021/09/11 01:39:04;;;;;;;15.17;9.83;;;;;;;;;;5075905;28;20220;-71
2021/09/11 01:41:32;;;;;;;13.20;10.10;;;;;;;;;;5076295;28;20217;-71
2021/09/11 01:43:58;;;;;;;14.30;11.50;;;;;;;;;;5079397;28;20236;-71
2021/09/11 01:46:25;;;;;;;14.10;10.70;;;;;;;;;;5076333;28;20268;-71
2021/09/11 01:48:51;;;;;;;16.90;10.60;;;;;;;;;;5077199;28;20219;-71
2021/09/11 01:51:18;;;;;;;14.50;10.23;;;;;;;;;;5076996;28;20245;-71
2021/09/11 01:53:44;;;;;;;11.77;9.43;;;;;;;;;;5077227;28;20608;-71
2021/09/11 01:56:10;;;;;;;11.80;8.97;;;;;;;;;;5077364;28;20265;-71
2021/09/11 01:58:38;;;;;;;16.53;10.63;;;;;;;;;;5077262;28;20264;-71
2021/09/11 02:01:04;;;;;;;12.47;10.83;;;;;;;;;;5076217;28;20244;-71
2021/09/11 02:03:31;;;;;;;13.57;11.03;;;;;;;;;;5076694;28;20248;-71
2021/09/11 02:05:57;;;;;;;15.57;10.80;;;;;;;;;;5076723;28;20263;-71
2021/09/11 02:08:24;;;;;;;13.47;10.87;;;;;;;;;;5075008;28;20569;-71
2021/09/11 02:10:50;;;;;;;14.83;10.37;;;;;;;;;;5078274;28;20881;-72
2021/09/11 02:13:17;;;;;;;13.57;10.23;;;;;;;;;;5075083;28;20219;-71
2021/09/11 02:15:45;;;;;;;15.37;10.20;;;;;;;;;;5078294;28;20219;-72
2021/09/11 02:18:11;;;;;;;18.07;10.73;;;;;;;;;;5076443;28;20225;-71
2021/09/11 02:20:38;;;;;;;17.30;11.27;;;;;;;;;;5075892;28;20558;-71
2021/09/11 02:23:04;;;;;;;15.87;12.20;;;;;;;;;;5075976;28;20284;-71
2021/09/11 02:25:30;;;;;;;13.00;11.07;;;;;;;;;;5076507;28;20223;-71
2021/09/11 02:27:57;;;;;;;17.93;13.67;;;;;;;;;;5077320;28;20220;-71
2021/09/11 02:30:23;;;;;;;18.00;13.10;;;;;;;;;;5077610;28;20212;-71
2021/09/11 02:32:51;;;;;;;21.47;16.07;;;;;;;;;;5076482;28;20236;-71
2021/09/11 02:35:17;;;;;;;23.67;16.33;;;;;;;;;;5073299;28;20268;-71
2021/09/11 02:37:43;;;;;;;24.87;17.43;;;;;;;;;;5076996;28;20232;-71
2021/09/11 02:40:10;;;;;;;24.73;18.57;;;;;;;;;;5074960;28;20219;-72
2021/09/11 02:42:37;;;;;;;26.53;20.13;;;;;;;;;;5078290;28;21050;-71
2021/09/11 02:45:04;;;;;;;24.03;19.43;;;;;;;;;;5074751;28;20303;-71
2021/09/11 02:47:31;;;;;;;25.80;19.40;;;;;;;;;;5074569;28;20264;-71
2021/09/11 02:49:58;;;;;;;26.57;19.37;;;;;;;;;;5076365;28;20694;-71
2021/09/11 02:52:25;;;;;;;26.37;19.27;;;;;;;;;;5077732;28;20223;-71
2021/09/11 02:54:51;;;;;;;28.30;19.33;;;;;;;;;;5076961;28;20986;-71
2021/09/11 02:57:17;;;;;;;26.10;19.53;;;;;;;;;;5073527;28;20263;-71
2021/09/11 02:59:44;;;;;;;26.83;20.10;;;;;;;;;;5077052;28;20250;-71
2021/09/11 03:02:10;;;;;;;30.60;22.47;;;;;;;;;;5076569;28;20233;-71
2021/09/11 03:04:37;;;;;;;27.47;21.30;;;;;;;;;;5075683;28;20757;-71
2021/09/11 03:07:05;;;;;;;27.57;21.80;;;;;;;;;;5076021;28;20217;-71
2021/09/11 03:09:31;;;;;;;35.93;24.40;;;;;;;;;;5077318;28;20206;-71
2021/09/11 03:11:58;;;;;;;30.93;21.20;;;;;;;;;;5075053;28;20668;-71
2021/09/11 03:14:24;;;;;;;32.80;22.30;;;;;;;;;;5075855;28;20260;-71
2021/09/11 03:16:51;;;;;;;33.70;23.93;;;;;;;;;;5076127;28;20249;-71
2021/09/11 03:19:17;;;;;;;30.53;21.53;;;;;;;;;;5074905;28;20531;-71
2021/09/11 03:21:43;;;;;;;34.73;23.17;;;;;;;;;;5077145;28;20585;-71
2021/09/11 03:24:11;;;;;;;29.80;22.63;;;;;;;;;;5076827;28;20781;-71
2021/09/11 03:26:37;;;;;;;33.17;22.63;;;;;;;;;;5077494;28;20272;-71
2021/09/11 03:29:04;;;;;;;35.00;24.77;;;;;;;;;;5074980;28;20217;-71
2021/09/11 03:31:31;;;;;;;36.73;25.10;;;;;;;;;;5073047;28;20230;-71
2021/09/11 03:33:57;;;;;;;33.70;23.07;;;;;;;;;;5075027;28;20215;-71
2021/09/11 03:36:23;;;;;;;37.63;24.43;;;;;;;;;;5076061;28;20772;-71
2021/09/11 03:38:50;;;;;;;31.87;22.77;;;;;;;;;;5074684;28;20957;-71
2021/09/11 03:41:17;;;;;;;36.50;24.93;;;;;;;;;;5077916;28;20729;-71
2021/09/11 03:43:44;;;;;;;34.53;23.57;;;;;;;;;;5076811;28;20638;-71
2021/09/11 03:46:10;;;;;;;32.97;24.93;;;;;;;;;;5074976;28;20224;-71
2021/09/11 03:48:36;;;;;;;33.30;24.77;;;;;;;;;;5075878;28;20217;-71
2021/09/11 03:51:03;;;;;;;32.33;24.17;;;;;;;;;;5073424;28;20228;-71
2021/09/11 03:53:29;;;;;;;39.30;25.37;;;;;;;;;;5076216;28;20834;-71
2021/09/11 03:55:56;;;;;;;34.40;24.77;;;;;;;;;;5075341;28;20215;-71
2021/09/11 03:58:24;;;;;;;34.33;24.57;;;;;;;;;;5075877;28;20215;-71
2021/09/11 04:00:50;;;;;;;38.60;25.73;;;;;;;;;;5074148;28;20242;-71
2021/09/11 04:03:16;;;;;;;36.07;25.40;;;;;;;;;;5074989;28;20235;-71
2021/09/11 04:05:43;;;;;;;33.27;22.60;;;;;;;;;;5073552;28;20219;-71
2021/09/11 04:08:09;;;;;;;28.13;21.20;;;;;;;;;;5074286;28;20216;-71
2021/09/11 04:10:35;;;;;;;31.03;24.13;;;;;;;;;;5075353;28;20216;-71
2021/09/11 04:13:02;;;;;;;35.23;24.63;;;;;;;;;;5074411;28;20226;-71
2021/09/11 04:15:30;;;;;;;32.53;22.93;;;;;;;;;;5078283;28;20831;-71
2021/09/11 04:17:56;;;;;;;29.93;22.87;;;;;;;;;;5079184;28;20256;-71
2021/09/11 04:20:22;;;;;;;31.67;22.93;;;;;;;;;;5078807;28;20217;-71
2021/09/11 04:22:49;;;;;;;29.13;21.70;;;;;;;;;;5079188;28;20649;-71
2021/09/11 04:25:15;;;;;;;36.70;24.53;;;;;;;;;;5078442;28;20304;-71
2021/09/11 04:27:42;;;;;;;31.13;22.93;;;;;;;;;;5079787;28;20262;-71
2021/09/11 04:30:09;;;;;;;33.07;23.20;;;;;;;;;;5077699;28;20226;-72
2021/09/11 04:32:36;;;;;;;30.97;22.20;;;;;;;;;;5079227;28;20336;-70
2021/09/11 04:35:03;;;;;;;35.90;24.73;;;;;;;;;;5078072;28;20209;-71
2021/09/11 04:37:30;;;;;;;35.43;23.70;;;;;;;;;;5077704;28;20238;-70
2021/09/11 04:39:56;;;;;;;35.63;23.60;;;;;;;;;;5079180;28;20212;-71
2021/09/11 04:42:23;;;;;;;34.30;23.37;;;;;;;;;;5076494;28;20225;-70
2021/09/11 04:44:49;;;;;;;34.47;22.73;;;;;;;;;;5078247;28;20230;-70
2021/09/11 04:47:15;;;;;;;32.47;22.93;;;;;;;;;;5076598;28;20230;-70
2021/09/11 04:49:43;;;;;;;37.93;24.70;;;;;;;;;;5078226;28;20241;-71
2021/09/11 04:52:09;;;;;;;33.37;23.43;;;;;;;;;;5078485;28;20214;-71
2021/09/11 04:54:36;;;;;;;40.10;25.30;;;;;;;;;;5078520;28;20588;-70
2021/09/11 04:57:02;;;;;;;37.17;24.93;;;;;;;;;;5078269;28;20266;-70
2021/09/11 04:59:29;;;;;;;34.33;25.30;;;;;;;;;;5078304;28;20809;-70
2021/09/11 05:01:56;;;;;;;34.27;23.97;;;;;;;;;;5078226;28;20272;-70
2021/09/11 05:04:23;;;;;;;40.60;24.67;;;;;;;;;;5075031;28;20241;-71
2021/09/11 05:06:50;;;;;;;39.90;26.53;;;;;;;;;;5078435;28;20696;-71
2021/09/11 05:09:17;;;;;;;40.17;25.10;;;;;;;;;;5075327;28;20207;-71
2021/09/11 05:11:43;;;;;;;37.07;25.53;;;;;;;;;;5076622;28;20256;-71
2021/09/11 05:14:10;;;;;;;36.60;25.03;;;;;;;;;;5075972;28;20210;-71
2021/09/11 05:16:36;;;;;;;32.63;23.50;;;;;;;;;;5075394;28;20297;-71
2021/09/11 05:19:03;;;;;;;35.23;25.00;;;;;;;;;;5076957;28;20209;-71
2021/09/11 05:21:29;;;;;;;38.43;26.07;;;;;;;;;;5077382;28;20215;-71
2021/09/11 05:23:58;;;;;;;36.03;25.00;;;;;;;;;;5077383;28;20597;-71
2021/09/11 05:26:25;;;;;;;37.73;25.23;;;;;;;;;;5073988;28;20214;-71
2021/09/11 05:28:51;;;;;;;35.90;24.83;;;;;;;;;;5077191;28;20210;-71
2021/09/11 05:31:18;;;;;;;35.30;26.27;;;;;;;;;;5076867;28;20217;-71
2021/09/11 05:33:44;;;;;;;37.13;27.03;;;;;;;;;;5075768;28;20551;-71
2021/09/11 05:36:10;;;;;;;34.77;25.50;;;;;;;;;;5076378;28;20268;-71
2021/09/11 05:38:37;;;;;;;38.33;26.10;;;;;;;;;;5077348;28;21136;-71
2021/09/11 05:41:05;;;;;;;36.03;25.77;;;;;;;;;;5074105;28;20243;-71
2021/09/11 05:43:31;;;;;;;36.13;25.13;;;;;;;;;;5076528;28;20205;-71
2021/09/11 05:45:58;;;;;;;32.23;23.87;;;;;;;;;;5077351;28;20238;-71
2021/09/11 05:48:25;;;;;;;35.73;26.90;;;;;;;;;;5076213;28;20230;-73
2021/09/11 05:50:51;;;;;;;35.70;26.07;;;;;;;;;;5076652;28;20205;-71
2021/09/11 05:53:19;;;;;;;35.70;26.47;;;;;;;;;;5074509;28;20366;-70
2021/09/11 05:55:45;;;;;;;37.63;26.73;;;;;;;;;;5075687;28;20217;-71
2021/09/11 05:58:13;;;;;;;35.43;27.30;;;;;;;;;;5074179;28;20263;-70
2021/09/11 06:00:40;;;;;;;40.10;27.03;;;;;;;;;;5073173;28;20292;-71
2021/09/11 06:03:06;;;;;;;39.80;28.67;;;;;;;;;;5076612;28;20238;-71
2021/09/11 06:05:33;;;;;;;34.80;27.37;;;;;;;;;;5074948;28;20273;-71
2021/09/11 06:07:59;;;;;;;37.90;27.63;;;;;;;;;;5074954;28;20220;-71
2021/09/11 06:10:26;;;;;;;37.40;27.13;;;;;;;;;;5074708;28;20291;-70
2021/09/11 06:12:52;;;;;;;35.90;27.70;;;;;;;;;;5073905;28;20243;-70
2021/09/11 06:15:21;;;;;;;42.27;30.30;;;;;;;;;;5074137;28;20214;-71
2021/09/11 06:17:48;;;;;;;37.40;26.90;;;;;;;;;;5074572;28;20408;-71
2021/09/11 06:20:14;;;;;;;34.73;28.13;;;;;;;;;;5074138;28;20613;-71
2021/09/11 06:22:41;;;;;;;36.97;28.03;;;;;;;;;;5077009;28;20214;-71
2021/09/11 06:25:08;;;;;;;39.03;27.80;;;;;;;;;;5074115;28;20235;-71
2021/09/11 06:27:35;;;;;;;42.63;29.87;;;;;;;;;;5075668;28;20275;-71
2021/09/11 06:30:01;;;;;;;36.57;29.50;;;;;;;;;;5075180;28;20209;-71
2021/09/11 06:32:30;;;;;;;36.77;28.50;;;;;;;;;;5074612;28;20317;-71
2021/09/11 06:34:56;;;;;;;37.30;26.87;;;;;;;;;;5074600;28;20313;-70
2021/09/11 06:37:23;;;;;;;37.17;26.93;;;;;;;;;;5071102;28;20242;-70
2021/09/11 06:39:49;;;;;;;40.77;27.33;;;;;;;;;;5074260;28;20220;-70
2021/09/11 06:42:19;;;;;;;36.73;27.87;;;;;;;;;;5073997;28;20744;-70
2021/09/11 06:44:45;;;;;;;41.57;28.43;;;;;;;;;;5073601;28;20833;-70
2021/09/11 06:47:11;;;;;;;36.30;29.77;;;;;;;;;;5073767;28;20231;-70
2021/09/11 06:49:39;;;;;;;37.47;28.63;;;;;;;;;;5072226;28;20269;-70
2021/09/11 06:52:06;;;;;;;34.23;27.17;;;;;;;;;;5072976;28;20212;-70
2021/09/11 06:54:32;;;;;;;33.73;27.17;;;;;;;;;;5075762;28;20878;-70
2021/09/11 06:56:59;;;;;;;36.00;27.00;;;;;;;;;;5071619;28;20209;-70
2021/09/11 06:59:25;;;;;;;37.30;29.33;;;;;;;;;;5073219;28;20290;-70
2021/09/11 07:01:52;;;;;;;41.93;30.93;;;;;;;;;;5072693;28;20868;-71
2021/09/11 07:04:18;;;;;;;37.43;29.97;;;;;;;;;;5070351;28;20209;-70
2021/09/11 07:06:46;;;;;;;40.70;30.23;;;;;;;;;;5072940;28;20728;-70
2021/09/11 07:09:12;;;;;;;42.33;31.60;;;;;;;;;;5071843;28;20212;-71
2021/09/11 07:11:39;;;;;;;49.07;35.10;;;;;;;;;;5075040;28;20257;-71
2021/09/11 07:14:05;;;;;;;50.53;33.60;;;;;;;;;;5074476;28;20208;-71
2021/09/11 07:16:31;;;;;;;42.43;32.47;;;;;;;;;;5071039;28;20219;-71
2021/09/11 07:18:58;;;;;;;45.33;32.33;;;;;;;;;;5072245;28;20257;-71
2021/09/11 07:21:24;;;;;;;48.97;33.53;;;;;;;;;;5071534;28;20206;-71
2021/09/11 07:23:52;;;;;;;41.87;33.10;;;;;;;;;;5074264;28;20261;-71
2021/09/11 07:26:19;;;;;;;43.30;32.80;;;;;;;;;;5072051;28;20235;-70
2021/09/11 07:28:46;;;;;;;44.57;32.83;;;;;;;;;;5073623;28;20221;-70
2021/09/11 07:31:12;;;;;;;42.37;31.70;;;;;;;;;;5072507;28;20213;-70
2021/09/11 07:33:39;;;;;;;37.87;32.53;;;;;;;;;;5073075;28;20716;-70
2021/09/11 07:36:06;;;;;;;43.40;33.87;;;;;;;;;;5074346;28;20211;-70
2021/09/11 07:38:33;;;;;;;40.60;30.07;;;;;;;;;;5071901;28;20207;-70
2021/09/11 07:41:00;;;;;;;39.43;29.43;;;;;;;;;;5071287;28;20545;-70
2021/09/11 07:43:27;;;;;;;38.87;30.70;;;;;;;;;;5071728;28;20228;-70
2021/09/11 07:45:53;;;;;;;39.47;31.50;;;;;;;;;;5073652;28;20277;-70
2021/09/11 07:48:19;;;;;;;43.13;33.63;;;;;;;;;;5071179;28;20255;-70
2021/09/11 07:50:46;;;;;;;42.03;31.80;;;;;;;;;;5071982;28;20277;-70
2021/09/11 07:53:14;;;;;;;38.97;31.63;;;;;;;;;;5073309;28;20243;-70
2021/09/11 07:55:40;;;;;;;39.67;34.43;;;;;;;;;;5073498;28;20214;-70
2021/09/11 07:58:08;;;;;;;41.07;32.50;;;;;;;;;;5073738;28;20320;-70
2021/09/11 08:00:34;;;;;;;42.43;34.53;;;;;;;;;;5072892;28;20326;-70
2021/09/11 08:03:02;;;;;;;44.47;34.53;;;;;;;;;;5072016;28;20582;-69
2021/09/11 08:05:29;;;;;;;45.43;34.37;;;;;;;;;;5072274;28;20286;-70
2021/09/11 08:07:55;;;;;;;37.83;33.73;;;;;;;;;;5072252;28;20283;-69
2021/09/11 08:10:22;;;;;;;45.57;34.83;;;;;;;;;;5071962;28;20303;-70
2021/09/11 08:12:49;;;;;;;40.70;33.50;;;;;;;;;;5071917;28;20555;-70
2021/09/11 08:15:18;;;;;;;40.37;33.00;;;;;;;;;;5073198;28;20211;-70
2021/09/11 08:17:46;;;;;;;40.30;33.30;;;;;;;;;;5074496;28;20224;-70
2021/09/11 08:20:14;;;;;;;40.33;33.90;;;;;;;;;;5073675;28;20270;-70
2021/09/11 08:22:40;;;;;;;49.77;33.97;;;;;;;;;;5073244;28;20255;-70
2021/09/11 08:25:08;;;;;;;43.13;32.87;;;;;;;;;;5071858;28;20243;-70
2021/09/11 08:27:35;;;;;;;45.07;35.03;;;;;;;;;;5071160;28;20214;-70
2021/09/11 08:30:01;;;;;;;41.20;34.10;;;;;;;;;;5073957;28;20221;-70
2021/09/11 08:32:29;;;;;;;42.73;32.90;;;;;;;;;;5072671;28;20589;-70
2021/09/11 08:34:55;;;;;;;38.53;31.50;;;;;;;;;;5073089;28;20258;-71
2021/09/11 08:37:22;;;;;;;38.13;32.27;;;;;;;;;;5072770;28;20281;-70
2021/09/11 08:39:48;;;;;;;41.03;32.77;;;;;;;;;;5073886;28;20221;-70
2021/09/11 08:42:19;;;;;;;39.47;33.73;;;;;;;;;;5070386;28;20284;-70
2021/09/11 08:44:45;;;;;;;36.30;31.87;;;;;;;;;;5072699;28;20298;-70
2021/09/11 08:47:12;;;;;;;42.03;31.10;;;;;;;;;;5071296;28;20225;-70
2021/09/11 08:49:39;;;;;;;38.30;32.10;;;;;;;;;;5073740;28;20271;-70
2021/09/11 08:52:08;;;;;;;40.57;31.37;;;;;;;;;;5073917;28;20220;-70
2021/09/11 08:54:34;;;;;;;39.73;32.87;;;;;;;;;;5070980;28;20655;-70
2021/09/11 08:57:17;;;;;;;37.17;32.83;;;;;;;;;;5074421;28;20213;-70
2021/09/11 08:59:44;;;;;;;39.37;32.30;;;;;;;;;;5070589;28;20753;-70
2021/09/11 09:02:11;;;;;;;40.40;32.73;;;;;;;;;;5074744;28;20274;-70
2021/09/11 09:04:50;;;;;;;40.43;34.10;;;;;;;;;;5074622;28;20308;-70
2021/09/11 09:07:30;;;;;;;35.83;31.27;;;;;;;;;;5072686;28;20200;-70
2021/09/11 09:09:58;;;;;;;37.40;31.90;;;;;;;;;;5077793;28;20635;-69
2021/09/11 09:12:25;;;;;;;34.93;30.43;;;;;;;;;;5076876;28;20209;-70
2021/09/11 09:15:04;;;;;;;37.97;31.73;;;;;;;;;;5071619;28;20251;-70
2021/09/11 09:17:42;;;;;;;36.80;32.77;;;;;;;;;;5072244;28;21272;-72
2021/09/11 09:20:17;;;;;;;36.60;32.33;;;;;;;;;;5069703;28;20275;-72
2021/09/11 09:22:45;;;;;;;37.23;32.83;;;;;;;;;;5072771;28;20266;-70
2021/09/11 09:25:25;;;;;;;35.43;30.90;;;;;;;;;;5071930;28;20214;-70
2021/09/11 09:27:57;;;;;;;34.57;30.60;;;;;;;;;;5076280;28;20286;-70
2021/09/11 09:30:35;;;;;;;34.67;31.17;;;;;;;;;;5073893;28;20207;-70
2021/09/11 09:33:01;;;;;;;33.67;30.10;;;;;;;;;;5074381;28;20790;-70
2021/09/11 09:35:29;;;;;;;34.77;31.03;;;;;;;;;;5076079;28;20213;-71
2021/09/11 09:37:57;;;;;;;33.80;30.17;;;;;;;;;;5074387;28;20229;-70
2021/09/11 09:40:40;;;;;;;42.20;31.10;;;;;;;;;;5075325;28;20221;-70
2021/09/11 09:43:08;;;;;;;35.30;31.47;;;;;;;;;;5076539;28;20205;-70
2021/09/11 09:45:36;;;;;;;35.97;29.90;;;;;;;;;;5074810;28;20235;-70
2021/09/11 09:48:04;;;;;;;35.80;29.97;;;;;;;;;;5076129;28;20235;-70
2021/09/11 09:50:34;;;;;;;34.57;29.97;;;;;;;;;;5074658;28;21010;-70
2021/09/11 09:53:01;;;;;;;32.30;28.67;;;;;;;;;;5073663;28;20598;-70
2021/09/11 09:55:28;;;;;;;31.87;28.53;;;;;;;;;;5075887;28;20290;-70
2021/09/11 09:57:55;;;;;;;32.70;29.30;;;;;;;;;;5079178;28;20294;-70
2021/09/11 10:00:21;;;;;;;33.50;27.77;;;;;;;;;;5072804;28;20246;-70
2021/09/11 10:02:47;;;;;;;34.87;28.83;;;;;;;;;;5076087;28;20598;-70
2021/09/11 10:05:15;;;;;;;31.57;27.33;;;;;;;;;;5074308;28;20214;-70
2021/09/11 10:07:47;;;;;;;30.53;27.23;;;;;;;;;;5074651;28;20275;-71
2021/09/11 10:10:15;;;;;;;29.67;26.57;;;;;;;;;;5072831;28;20203;-70
2021/09/11 10:12:43;;;;;;;29.97;26.10;;;;;;;;;;5075952;28;20349;-70
2021/09/11 10:15:28;;;;;;;28.93;25.83;;;;;;;;;;5073120;28;20216;-70
2021/09/11 10:17:56;;;;;;;31.20;28.33;;;;;;;;;;5074737;28;20586;-70
2021/09/11 10:20:23;;;;;;;29.53;26.73;;;;;;;;;;5074409;28;20225;-70
2021/09/11 10:23:08;;;;;;;30.57;27.37;;;;;;;;;;5076621;28;20213;-72
2021/09/11 10:25:44;;;;;;;30.00;26.93;;;;;;;;;;5073180;28;20239;-71
2021/09/11 10:28:15;;;;;;;31.33;27.80;;;;;;;;;;5075987;28;20291;-70
2021/09/11 10:31:02;;;;;;;28.07;25.10;;;;;;;;;;5076714;28;20217;-70
2021/09/11 10:33:39;;;;;;;28.27;25.27;;;;;;;;;;5075294;28;20270;-70
2021/09/11 10:36:09;;;;;;;28.57;25.40;;;;;;;;;;5073393;28;20201;-70
2021/09/11 10:38:40;;;;;;;29.57;25.63;;;;;;;;;;5074653;28;20580;-71
2021/09/11 10:41:11;;;;;;;28.50;25.60;;;;;;;;;;5072143;28;20244;-71
2021/09/11 10:43:38;;;;;;;33.13;24.93;;;;;;;;;;5074530;28;20217;-70
2021/09/11 10:46:10;;;;;;;27.73;25.20;;;;;;;;;;5075425;28;21008;-70
2021/09/11 10:48:44;;;;;;;28.73;25.73;;;;;;;;;;5073981;28;20209;-71
2021/09/11 10:51:13;;;;;;;29.30;25.73;;;;;;;;;;5071862;28;20216;-70
2021/09/11 10:53:56;;;;;;;28.60;25.63;;;;;;;;;;5074895;28;20213;-70
2021/09/11 10:56:23;;;;;;;27.43;24.47;;;;;;;;;;5071277;28;20208;-70
2021/09/11 10:59:23;;;;;;;26.50;22.50;;;;;;;;;;5073745;28;20214;-70
2021/09/11 11:01:57;;;;;;;24.13;20.43;;;;;;;;;;5073814;28;20225;-70
2021/09/11 11:04:24;;;;;;;27.90;20.90;;;;;;;;;;5074194;28;20224;-70
2021/09/11 11:06:51;;;;;;;24.27;21.77;;;;;;;;;;5074558;28;20677;-70
2021/09/11 11:09:19;;;;;;;25.67;21.40;;;;;;;;;;5072707;28;20303;-71
2021/09/11 11:11:47;;;;;;;22.07;19.90;;;;;;;;;;5076093;28;20218;-71
2021/09/11 11:14:14;;;;;;;23.67;21.20;;;;;;;;;;5074067;28;20758;-71
2021/09/11 11:16:45;;;;;;;24.03;21.60;;;;;;;;;;5072987;28;20283;-71
2021/09/11 11:19:11;;;;;;;23.83;20.17;;;;;;;;;;5073145;28;20764;-71
2021/09/11 11:21:38;;;;;;;22.53;20.13;;;;;;;;;;5075713;28;20279;-70
2021/09/11 11:24:05;;;;;;;21.40;19.23;;;;;;;;;;5071992;28;20234;-70
2021/09/11 11:26:33;;;;;;;20.20;18.07;;;;;;;;;;5072119;28;20329;-70
2021/09/11 11:28:59;;;;;;;22.27;18.67;;;;;;;;;;5071596;28;20205;-70
2021/09/11 11:31:25;;;;;;;20.97;18.77;;;;;;;;;;5073082;28;20262;-71
2021/09/11 11:33:52;;;;;;;18.80;17.13;;;;;;;;;;5073722;28;20639;-71
2021/09/11 11:36:20;;;;;;;19.00;17.17;;;;;;;;;;5069473;28;20209;-71
2021/09/11 11:38:47;;;;;;;20.53;18.33;;;;;;;;;;5075730;28;20213;-72
2021/09/11 11:41:13;;;;;;;17.73;16.03;;;;;;;;;;5071100;28;20221;-71
2021/09/11 11:43:41;;;;;;;18.87;16.90;;;;;;;;;;5072300;28;20354;-71
2021/09/11 11:46:08;;;;;;;18.53;16.47;;;;;;;;;;5071110;28;20233;-71
2021/09/11 11:48:37;;;;;;;21.40;18.03;;;;;;;;;;5070683;28;21198;-71
2021/09/11 11:51:11;;;;;;;22.53;18.17;;;;;;;;;;5073540;28;20368;-71
2021/09/11 11:53:38;;;;;;;22.70;20.33;;;;;;;;;;5072025;28;20298;-71
2021/09/11 11:56:07;;;;;;;23.33;21.10;;;;;;;;;;5073443;28;20685;-71
2021/09/11 11:58:33;;;;;;;22.50;20.30;;;;;;;;;;5072798;28;20981;-71
2021/09/11 12:01:02;;;;;;;26.17;22.10;;;;;;;;;;5072820;28;20621;-71
2021/09/11 12:03:33;;;;;;;24.23;21.73;;;;;;;;;;5071512;28;20290;-71
2021/09/11 12:05:59;;;;;;;24.53;21.37;;;;;;;;;;5071385;28;20594;-71
2021/09/11 12:08:27;;;;;;;24.27;21.00;;;;;;;;;;5072680;28;20221;-71
2021/09/11 12:10:56;;;;;;;26.53;22.10;;;;;;;;;;5071717;28;20231;-71
2021/09/11 12:13:23;;;;;;;23.77;21.37;;;;;;;;;;5071720;28;20209;-71
2021/09/11 12:15:50;;;;;;;22.33;19.10;;;;;;;;;;5072490;28;20259;-71
2021/09/11 12:18:18;;;;;;;26.77;20.07;;;;;;;;;;5071212;28;20234;-71
2021/09/11 12:20:47;;;;;;;20.53;18.53;;;;;;;;;;5072299;28;20217;-71
2021/09/11 12:23:16;;;;;;;21.33;19.33;;;;;;;;;;5070898;28;20210;-71
2021/09/11 12:25:50;;;;;;;21.53;19.57;;;;;;;;;;5072784;28;21050;-71
2021/09/11 12:28:37;;;;;;;21.43;19.33;;;;;;;;;;5072405;28;20269;-71
2021/09/11 12:31:04;;;;;;;26.27;23.47;;;;;;;;;;5071963;28;20645;-71
2021/09/11 12:33:41;;;;;;;25.30;22.70;;;;;;;;;;5072052;28;20610;-71
2021/09/11 12:36:20;;;;;;;26.07;23.23;;;;;;;;;;5071902;28;20663;-71
2021/09/11 12:38:46;;;;;;;24.17;21.73;;;;;;;;;;5075694;28;20248;-71
2021/09/11 12:41:13;;;;;;;24.57;22.00;;;;;;;;;;5074837;28;20214;-71
2021/09/11 12:43:39;;;;;;;24.73;22.23;;;;;;;;;;5076361;28;20730;-71
2021/09/11 12:46:05;;;;;;;24.53;22.13;;;;;;;;;;5075949;28;20590;-71
2021/09/11 12:48:33;;;;;;;21.80;19.33;;;;;;;;;;5075915;28;20277;-71
2021/09/11 12:51:00;;;;;;;23.30;21.00;;;;;;;;;;5074434;28;20726;-71
2021/09/11 12:53:26;;;;;;;18.10;16.33;;;;;;;;;;5073945;28;20220;-71
2021/09/11 12:55:53;;;;;;;17.13;15.53;;;;;;;;;;5075483;28;20240;-71
2021/09/11 12:58:19;;;;;;;14.50;13.00;;;;;;;;;;5074232;28;20623;-71
2021/09/11 13:00:46;;;;;;;12.90;11.60;;;;;;;;;;5077147;28;20656;-71
2021/09/11 13:03:12;;;;;;;13.07;11.63;;;;;;;;;;5074251;28;20615;-70
2021/09/11 13:05:40;;;;;;;15.83;13.13;;;;;;;;;;5077469;28;21144;-71
2021/09/11 13:08:06;;;;;;;13.23;11.87;;;;;;;;;;5075371;28;20263;-71
2021/09/11 13:10:33;;;;;;;13.30;11.93;;;;;;;;;;5075751;28;20656;-71
2021/09/11 13:12:59;;;;;;;14.27;12.87;;;;;;;;;;5075564;28;20557;-71
2021/09/11 13:15:25;;;;;;;17.87;15.87;;;;;;;;;;5075419;28;21162;-71
2021/09/11 13:17:52;;;;;;;22.10;17.63;;;;;;;;;;5076224;28;20324;-70
2021/09/11 13:20:18;;;;;;;18.70;16.70;;;;;;;;;;5075535;28;20228;-70
2021/09/11 13:22:46;;;;;;;18.23;15.63;;;;;;;;;;5076978;28;20266;-71
2021/09/11 13:25:12;;;;;;;21.37;17.17;;;;;;;;;;5073640;28;20214;-71
2021/09/11 13:27:38;;;;;;;19.33;16.77;;;;;;;;;;5077212;28;20274;-71
2021/09/11 13:30:06;;;;;;;17.73;16.03;;;;;;;;;;5076423;28;20236;-70
2021/09/11 13:32:32;;;;;;;18.40;16.33;;;;;;;;;;5074220;28;20229;-71
2021/09/11 13:34:59;;;;;;;19.93;16.60;;;;;;;;;;5074346;28;20261;-72
2021/09/11 13:37:25;;;;;;;19.50;17.50;;;;;;;;;;5076592;28;20259;-73
2021/09/11 13:39:53;;;;;;;21.30;17.87;;;;;;;;;;5077323;28;20212;-73
2021/09/11 13:42:19;;;;;;;18.87;16.97;;;;;;;;;;5075771;28;20217;-73
2021/09/11 13:44:48;;;;;;;19.07;17.23;;;;;;;;;;5074232;28;20267;-73
2021/09/11 13:47:16;;;;;;;20.07;18.00;;;;;;;;;;5073489;28;20264;-71
2021/09/11 13:49:42;;;;;;;18.83;16.93;;;;;;;;;;5077627;28;20613;-71
2021/09/11 13:52:09;;;;;;;19.83;17.73;;;;;;;;;;5075217;28;20553;-70
2021/09/11 13:54:35;;;;;;;18.63;16.07;;;;;;;;;;5073722;28;20214;-71
2021/09/11 13:57:03;;;;;;;17.20;15.43;;;;;;;;;;5073065;28;20897;-71
2021/09/11 13:59:29;;;;;;;14.63;13.03;;;;;;;;;;5072828;28;20248;-71
2021/09/11 14:01:56;;;;;;;14.73;13.10;;;;;;;;;;5073786;28;20224;-73
2021/09/11 14:04:22;;;;;;;16.57;14.27;;;;;;;;;;5070299;28;20287;-73
2021/09/11 14:06:49;;;;;;;16.93;15.33;;;;;;;;;;5073946;28;20596;-71
2021/09/11 14:09:15;;;;;;;15.93;14.37;;;;;;;;;;5072400;28;20358;-71
2021/09/11 14:11:42;;;;;;;18.57;16.77;;;;;;;;;;5076580;28;20205;-71
2021/09/11 14:14:11;;;;;;;19.47;17.43;;;;;;;;;;5074381;28;21036;-70
2021/09/11 14:16:38;;;;;;;19.50;17.63;;;;;;;;;;5076706;28;20619;-72
2021/09/11 14:19:04;;;;;;;17.33;15.63;;;;;;;;;;5076472;28;20218;-72